Time;durP1;ratioP1;P1;durP2;ratioP2;P2;SDS_P1;SDS_P2;PMS_P1;PMS_P2;Temp;Humidity;BMP_temperature;BMP_pressure;BME280_temperature;BME280_humidity;BME280_pressure;Samples;Min_cycle;Max_cycle;Signal;HPM_P1;HPM_P2
2023/10/02 00:00:43;;;;;;;3.22;1.05;;;;;;;18.38;50.00;100394.28;4439844;32;32776;-74
2023/10/02 00:03:11;;;;;;;12.18;1.27;;;;;;;18.36;50.66;100405.28;4444621;32;33678;-74
2023/10/02 00:05:50;;;;;;;3.10;0.98;;;;;;;18.30;50.28;100396.91;4451914;32;33831;-73
2023/10/02 00:16:59;;;;;;;4.80;2.30;;;;;;;18.19;50.37;100394.34;4383342;32;34402;-75
2023/10/02 00:19:47;;;;;;;4.50;1.92;;;;;;;18.11;50.60;100393.25;4384244;32;33044;-70
2023/10/02 00:25:22;;;;;;;6.28;2.28;;;;;;;17.97;50.72;100396.41;4365101;32;33533;-73
2023/10/02 00:27:51;;;;;;;3.30;1.70;;;;;;;17.99;50.64;100389.00;4365639;32;34049;-74
2023/10/02 00:30:35;;;;;;;3.15;1.15;;;;;;;17.86;51.34;100397.44;4370683;32;34695;-74
2023/10/02 00:33:05;;;;;;;1.92;1.48;;;;;;;17.92;50.70;100393.31;4370346;32;33790;-74
2023/10/02 00:35:50;;;;;;;2.62;0.75;;;;;;;17.99;50.45;100385.44;4369332;32;34468;-70
2023/10/02 00:38:18;;;;;;;3.72;1.60;;;;;;;18.01;50.22;100386.13;4370614;32;34958;-70
2023/10/02 00:40:46;;;;;;;7.22;2.85;;;;;;;17.98;50.31;100389.13;4368891;32;34321;-70
2023/10/02 00:45:59;;;;;;;4.22;1.40;;;;;;;17.93;50.21;100379.59;4372526;32;33901;-70
2023/10/02 00:48:28;;;;;;;4.68;1.30;;;;;;;17.87;50.35;100382.87;4388513;32;34530;-70
2023/10/02 00:51:05;;;;;;;2.30;1.73;;;;;;;17.75;50.83;100385.87;4408401;32;33618;-70
2023/10/02 00:53:41;;;;;;;3.45;1.33;;;;;;;17.75;50.86;100384.03;4417617;32;34655;-70
2023/10/02 00:56:28;;;;;;;8.10;2.40;;;;;;;17.75;50.93;100381.31;4423495;32;33857;-70
2023/10/02 00:59:00;;;;;;;3.50;1.83;;;;;;;17.76;50.99;100382.19;4429668;32;34005;-70
2023/10/02 01:01:34;;;;;;;3.17;1.80;;;;;;;17.67;51.19;100382.06;4445603;32;33592;-71
2023/10/02 01:04:10;;;;;;;7.32;2.33;;;;;;;17.58;51.33;100382.91;4480561;31;33153;-75
2023/10/02 01:09:33;;;;;;;1.23;0.95;;;;;;;17.63;51.16;100377.09;4468407;32;34009;-74
2023/10/02 01:12:01;;;;;;;5.05;2.80;;;;;;;17.64;51.34;100376.94;4479917;32;34970;-74
2023/10/02 01:17:22;;;;;;;2.22;1.52;;;;;;;17.74;51.12;100385.03;4467659;32;33332;-74
2023/10/02 01:19:52;;;;;;;3.00;1.67;;;;;;;17.76;50.98;100383.03;4434203;32;33635;-74
2023/10/02 01:22:27;;;;;;;1.10;0.57;;;;;;;17.77;50.81;100386.63;4446655;32;34100;-73
2023/10/02 01:25:13;;;;;;;3.53;1.05;;;;;;;17.69;50.82;100392.75;4434753;32;33190;-73
2023/10/02 01:27:48;;;;;;;2.40;1.15;;;;;;;17.65;50.86;100396.72;4443969;32;34959;-73
2023/10/02 01:30:20;;;;;;;3.78;2.25;;;;;;;17.66;50.97;100393.03;4447793;32;35258;-73
2023/10/02 01:33:06;;;;;;;3.25;1.40;;;;;;;17.61;50.83;100398.03;4448464;32;33493;-73
2023/10/02 01:35:38;;;;;;;7.30;2.35;;;;;;;17.59;50.94;100394.59;4435575;32;33216;-73
2023/10/02 01:38:12;;;;;;;3.30;2.08;;;;;;;17.26;51.82;100393.19;4444212;32;35248;-73
2023/10/02 01:40:54;;;;;;;7.23;1.77;;;;;;;16.75;53.58;100400.50;4442992;32;32602;-73
2023/10/02 01:43:27;;;;;;;5.78;1.55;;;;;;;16.87;53.04;100401.25;4444696;32;33617;-73
2023/10/02 01:45:57;;;;;;;5.75;2.45;;;;;;;16.75;53.31;100395.94;4444396;32;32569;-73
2023/10/02 01:48:37;;;;;;;1.52;1.12;;;;;;;16.50;54.17;100391.88;4445873;32;34795;-73
2023/10/02 01:51:20;;;;;;;2.25;1.55;;;;;;;16.62;53.96;100397.16;4459709;32;34132;-73
2023/10/02 01:53:54;;;;;;;4.45;1.37;;;;;;;16.88;53.08;100397.56;4471571;32;33498;-73
2023/10/02 01:56:24;;;;;;;4.10;1.75;;;;;;;17.00;52.71;100393.72;4468705;32;33394;-73
2023/10/02 01:58:53;;;;;;;2.08;1.33;;;;;;;17.00;52.38;100397.28;4473673;32;33902;-73
2023/10/02 02:01:21;;;;;;;4.28;1.50;;;;;;;16.97;52.46;100394.84;4474408;32;33994;-73
2023/10/02 02:03:50;;;;;;;3.62;1.65;;;;;;;17.00;52.30;100401.84;4467879;32;34207;-73
2023/10/02 02:06:21;;;;;;;3.20;1.65;;;;;;;16.94;52.38;100405.09;4468398;32;34214;-73
2023/10/02 02:08:53;;;;;;;5.20;1.73;;;;;;;16.85;52.74;100400.53;4468505;32;33814;-73
2023/10/02 02:11:24;;;;;;;2.90;1.48;;;;;;;16.62;53.38;100397.16;4468627;32;35720;-73
2023/10/02 02:13:53;;;;;;;2.40;1.40;;;;;;;16.74;52.92;100398.78;4466758;32;34187;-73
2023/10/02 02:16:25;;;;;;;5.43;1.40;;;;;;;16.52;53.67;100394.44;4471580;32;33007;-73
2023/10/02 02:18:54;;;;;;;3.15;1.33;;;;;;;16.45;53.93;100388.72;4467079;32;34749;-73
2023/10/02 02:21:25;;;;;;;2.72;1.50;;;;;;;16.42;53.95;100393.56;4467244;32;34843;-72
2023/10/02 02:24:03;;;;;;;3.60;1.20;;;;;;;16.58;53.20;100393.91;4471425;32;33707;-73
2023/10/02 02:26:31;;;;;;;2.12;1.33;;;;;;;16.46;53.61;100394.97;4483396;32;33852;-74
2023/10/02 02:29:03;;;;;;;3.42;1.42;;;;;;;16.62;52.93;100398.03;4466223;32;33802;-71
2023/10/02 02:31:32;;;;;;;2.97;1.48;;;;;;;16.44;53.47;100403.25;4468235;32;34260;-70
2023/10/02 02:34:04;;;;;;;2.72;1.05;;;;;;;16.36;53.71;100400.34;4475370;32;33681;-70
2023/10/02 02:36:35;;;;;;;4.07;1.48;;;;;;;16.45;53.34;100404.94;4476607;32;33676;-70
2023/10/02 02:39:16;;;;;;;2.22;1.55;;;;;;;16.52;53.12;100411.50;4474234;32;34715;-70
2023/10/02 02:44:46;;;;;;;2.28;1.05;;;;;;;16.37;53.67;100403.91;4480228;32;34004;-72
2023/10/02 02:47:16;;;;;;;3.22;1.35;;;;;;;16.39;53.52;100408.19;4476840;32;33500;-72
2023/10/02 02:49:50;;;;;;;1.25;0.90;;;;;;;16.45;53.26;100399.53;4468111;32;33983;-72
2023/10/02 02:52:26;;;;;;;2.10;1.08;;;;;;;16.58;52.93;100411.97;4470450;32;35003;-72
2023/10/02 02:54:59;;;;;;;2.10;1.02;;;;;;;16.67;52.74;100412.00;4468175;32;34501;-72
2023/10/02 02:57:29;;;;;;;2.40;1.35;;;;;;;16.72;52.52;100411.56;4473946;32;34223;-73
2023/10/02 03:03:34;;;;;;;1.65;1.00;;;;;;;16.74;52.42;100418.53;4380518;32;20142;-68
2023/10/02 03:06:04;;;;;;;5.37;1.45;;;;;;;16.78;52.27;100419.16;4386733;32;34764;-68
2023/10/02 03:08:37;;;;;;;1.90;1.05;;;;;;;16.80;52.07;100421.75;4386794;32;33223;-67
2023/10/02 03:11:07;;;;;;;1.17;0.77;;;;;;;16.82;52.19;100428.72;4381713;32;33454;-67
2023/10/02 03:13:35;;;;;;;1.45;0.85;;;;;;;16.71;52.37;100424.22;4381941;32;33757;-67
2023/10/02 03:16:10;;;;;;;3.03;1.58;;;;;;;16.62;52.81;100422.34;4391279;32;32452;-67
2023/10/02 03:18:43;;;;;;;3.35;1.10;;;;;;;16.65;52.55;100422.06;4391494;32;34545;-67
2023/10/02 03:21:22;;;;;;;3.97;1.50;;;;;;;16.62;52.49;100411.53;4377431;32;33757;-67
2023/10/02 03:23:53;;;;;;;0.93;0.60;;;;;;;16.66;52.44;100425.62;4381610;32;34944;-67
2023/10/02 03:29:11;;;;;;;1.52;0.88;;;;;;;16.82;51.72;100427.84;4384830;32;33386;-66
2023/10/02 03:31:49;;;;;;;1.87;1.10;;;;;;;16.82;51.82;100427.84;4384760;32;34587;-66
2023/10/02 03:34:32;;;;;;;3.20;1.23;;;;;;;16.85;51.62;100435.69;4381154;32;34018;-67
2023/10/02 03:37:12;;;;;;;2.95;1.10;;;;;;;16.88;51.58;100436.25;4378887;32;34157;-67
2023/10/02 03:42:40;;;;;;;2.53;0.85;;;;;;;16.80;51.92;100428.00;4356979;32;33581;-67
2023/10/02 03:45:08;;;;;;;3.03;1.85;;;;;;;16.82;51.97;100420.63;4354214;32;33885;-67
2023/10/02 03:47:37;;;;;;;4.25;1.40;;;;;;;16.81;52.11;100437.81;4356796;32;33854;-67
2023/10/02 03:50:12;;;;;;;5.78;1.65;;;;;;;16.78;52.07;100438.06;4358318;32;33223;-67
2023/10/02 03:52:45;;;;;;;2.62;1.40;;;;;;;16.72;52.38;100431.34;4358239;32;35074;-70
2023/10/02 03:55:15;;;;;;;2.50;1.48;;;;;;;16.77;52.38;100437.22;4356571;32;34917;-70
2023/10/02 03:57:50;;;;;;;3.67;1.27;;;;;;;16.80;52.52;100435.25;4358380;32;34662;-70
2023/10/02 04:00:22;;;;;;;3.60;1.20;;;;;;;16.84;52.63;100440.22;4355521;32;33877;-70
2023/10/02 04:02:52;;;;;;;7.03;2.25;;;;;;;16.73;52.85;100443.03;4354502;32;33605;-70
2023/10/02 04:05:42;;;;;;;3.17;1.75;;;;;;;16.83;52.79;100438.53;4356695;32;35467;-70
2023/10/02 04:08:36;;;;;;;1.60;0.98;;;;;;;16.87;53.04;100445.38;4357315;32;33398;-69
2023/10/02 04:11:04;;;;;;;7.72;2.05;;;;;;;16.80;53.37;100437.97;4351501;32;34138;-69
2023/10/02 04:13:35;;;;;;;3.28;1.17;;;;;;;16.90;53.17;100438.84;4351873;32;35106;-70
2023/10/02 04:18:58;;;;;;;2.00;1.02;;;;;;;16.87;53.57;100434.56;4365295;32;34324;-69
2023/10/02 04:21:28;;;;;;;0.70;0.65;;;;;;;17.03;53.23;100433.16;4387397;32;33213;-71
2023/10/02 04:23:57;;;;;;;4.82;2.03;;;;;;;17.09;53.08;100432.63;4389617;32;33909;-73
2023/10/02 04:26:28;;;;;;;5.37;2.58;;;;;;;17.13;53.02;100434.88;4392601;32;34042;-65
2023/10/02 04:32:04;;;;;;;4.62;1.85;;;;;;;17.26;52.81;100444.59;4389035;32;33185;-68
2023/10/02 04:34:36;;;;;;;2.08;1.15;;;;;;;17.33;53.02;100440.31;4388236;32;33947;-68
2023/10/02 04:37:19;;;;;;;1.92;1.27;;;;;;;17.42;53.16;100450.28;4390315;32;35014;-68
2023/10/02 04:42:25;;;;;;;3.60;1.75;;;;;;;17.55;52.95;100450.00;4391113;32;33236;-68
2023/10/02 04:44:56;;;;;;;3.75;2.22;;;;;;;17.58;53.16;100444.31;4385372;32;33644;-67
2023/10/02 04:47:30;;;;;;;2.58;1.27;;;;;;;17.63;53.35;100450.16;4386787;32;34060;-67
2023/10/02 04:55:43;;;;;;;6.93;1.20;;;;;;;17.71;52.83;100455.72;4386994;32;35083;-67
2023/10/02 04:58:19;;;;;;;3.15;1.62;;;;;;;17.60;53.26;100464.84;4390130;32;33624;-68
2023/10/02 05:03:52;;;;;;;3.30;1.27;;;;;;;17.75;53.09;100467.94;4387609;32;32995;-68
2023/10/02 05:11:58;;;;;;;2.97;1.50;;;;;;;17.83;53.00;100480.81;4391976;32;33677;-68
2023/10/02 05:14:26;;;;;;;6.43;1.62;;;;;;;17.85;52.77;100489.66;4390719;32;33509;-67
2023/10/02 05:17:18;;;;;;;3.08;1.42;;;;;;;17.63;52.90;100490.78;4385089;32;33782;-67
2023/10/02 05:20:00;;;;;;;4.43;1.33;;;;;;;17.64;53.02;100493.31;4380912;32;35344;-67
2023/10/02 05:22:31;;;;;;;3.92;1.80;;;;;;;17.68;52.79;100491.19;4389584;32;33774;-67
2023/10/02 05:24:59;;;;;;;2.97;2.00;;;;;;;17.75;52.61;100486.91;4379874;32;34342;-67
2023/10/02 05:27:30;;;;;;;2.20;1.55;;;;;;;17.81;52.53;100493.63;4379177;32;34354;-67
2023/10/02 05:29:59;;;;;;;2.30;1.58;;;;;;;17.90;52.61;100500.91;4387829;32;34074;-67
2023/10/02 05:32:31;;;;;;;2.40;1.40;;;;;;;17.94;52.43;100494.19;4388309;32;33355;-67
2023/10/02 05:35:04;;;;;;;9.80;1.60;;;;;;;17.99;52.11;100500.03;4385420;32;34427;-67
2023/10/02 05:37:39;;;;;;;2.25;1.27;;;;;;;18.03;52.10;100503.31;4392209;32;34872;-67
2023/10/02 05:43:09;;;;;;;5.78;1.60;;;;;;;18.08;52.11;100501.91;4388601;32;34348;-67
2023/10/02 05:45:40;;;;;;;2.97;1.60;;;;;;;18.14;51.84;100501.31;4382581;32;34733;-67
2023/10/02 05:48:15;;;;;;;19.08;2.65;;;;;;;18.24;51.64;100509.44;4387381;32;33896;-72
2023/10/02 05:50:47;;;;;;;2.20;1.17;;;;;;;18.37;51.67;100514.53;4381802;32;35178;-67
2023/10/02 05:53:16;;;;;;;1.45;1.08;;;;;;;18.51;51.46;100515.91;4384386;32;32705;-70
2023/10/02 05:56:04;;;;;;;9.05;1.90;;;;;;;18.62;51.15;100504.91;4382318;32;33282;-70
2023/10/02 05:58:33;;;;;;;4.30;1.77;;;;;;;18.68;51.24;100514.28;4387584;32;34225;-70
2023/10/02 06:01:06;;;;;;;4.18;1.60;;;;;;;18.48;52.72;100513.50;4382713;32;34957;-70
2023/10/02 06:03:36;;;;;;;8.40;3.47;;;;;;;18.88;51.62;100517.84;4379687;32;34631;-70
2023/10/02 06:06:24;;;;;;;7.78;4.22;;;;;;;19.09;51.13;100518.41;4388694;32;32826;-70
2023/10/02 06:08:55;;;;;;;5.97;1.98;;;;;;;19.37;49.93;100516.56;4381333;32;33546;-70
2023/10/02 06:11:26;;;;;;;2.35;1.52;;;;;;;19.46;49.44;100515.63;4387612;32;33908;-70
2023/10/02 06:14:09;;;;;;;3.28;1.40;;;;;;;19.69;49.02;100526.06;4383936;32;35064;-70
2023/10/02 06:16:40;;;;;;;6.40;3.28;;;;;;;19.97;48.22;100524.16;4377891;32;34404;-70
2023/10/02 06:19:15;;;;;;;5.65;1.65;;;;;;;19.96;48.16;100531.41;4381249;32;36168;-70
2023/10/02 06:22:00;;;;;;;2.67;1.63;;;;;;;19.96;47.81;100531.41;4385609;32;35172;-70
2023/10/02 06:24:28;;;;;;;6.87;2.92;;;;;;;20.00;48.06;100545.56;4384714;32;33996;-70
2023/10/02 06:26:57;;;;;;;5.87;2.35;;;;;;;20.16;47.67;100543.00;4385489;32;32854;-71
2023/10/02 06:29:29;;;;;;;14.70;2.45;;;;;;;20.13;47.93;100545.16;4384566;32;34653;-70
2023/10/02 06:32:11;;;;;;;3.70;1.65;;;;;;;20.17;48.07;100546.56;4381350;32;34988;-70
2023/10/02 06:34:43;;;;;;;5.03;2.00;;;;;;;20.34;47.41;100537.50;4385736;32;34701;-70
2023/10/02 06:37:16;;;;;;;4.20;1.77;;;;;;;20.38;47.58;100544.31;4383695;32;34272;-70
2023/10/02 06:40:14;;;;;;;8.07;2.67;;;;;;;20.41;47.21;100548.59;4378093;32;34708;-70
2023/10/02 06:42:49;;;;;;;5.28;2.10;;;;;;;20.48;47.34;100538.78;4381933;32;33577;-69
2023/10/02 06:45:18;;;;;;;6.80;2.58;;;;;;;20.39;47.22;100546.03;4382792;32;34260;-70
2023/10/02 06:47:48;;;;;;;4.97;2.17;;;;;;;20.58;46.55;100541.47;4378071;32;34083;-69
2023/10/02 06:50:27;;;;;;;3.15;1.52;;;;;;;20.57;46.35;100535.13;4385113;32;33792;-69
2023/10/02 06:52:58;;;;;;;13.07;1.80;;;;;;;20.64;46.15;100538.06;4386321;32;34084;-70
2023/10/02 06:55:27;;;;;;;6.87;2.70;;;;;;;20.33;46.74;100540.41;4390276;32;33908;-70
2023/10/02 06:57:56;;;;;;;6.32;2.08;;;;;;;20.29;47.72;100549.84;4390263;32;33926;-70
2023/10/02 07:00:36;;;;;;;7.12;2.60;;;;;;;20.20;47.21;100552.53;4387025;32;34809;-70
2023/10/02 07:03:06;;;;;;;5.68;1.80;;;;;;;20.59;47.01;100544.00;4381931;32;34067;-70
2023/10/02 07:05:34;;;;;;;5.62;2.15;;;;;;;20.53;46.95;100541.06;4383789;32;33707;-70
2023/10/02 07:08:18;;;;;;;4.20;2.35;;;;;;;20.59;47.51;100549.44;4381599;32;33202;-70
2023/10/02 07:10:48;;;;;;;2.83;1.83;;;;;;;20.81;46.79;100547.19;4377144;32;35122;-69
2023/10/02 07:13:22;;;;;;;2.75;1.25;;;;;;;20.93;47.00;100554.91;4386406;32;34611;-69
2023/10/02 07:15:55;;;;;;;2.40;1.05;;;;;;;21.28;46.33;100549.44;4389018;32;34076;-70
2023/10/02 07:18:35;;;;;;;4.25;1.48;;;;;;;21.05;46.59;100558.19;4386392;32;34805;-70
2023/10/02 07:21:07;;;;;;;3.45;1.48;;;;;;;21.45;45.44;100548.53;4384535;32;33748;-70
2023/10/02 07:23:39;;;;;;;7.22;2.45;;;;;;;21.50;45.44;100553.47;4386042;32;34051;-71
2023/10/02 07:29:11;;;;;;;7.45;2.15;;;;;;;21.77;45.02;100557.81;4382116;32;34511;-70
2023/10/02 07:31:44;;;;;;;8.07;2.45;;;;;;;21.99;45.14;100557.16;4383381;32;36144;-70
2023/10/02 07:34:15;;;;;;;4.32;2.30;;;;;;;22.22;44.50;100553.78;4381438;32;33964;-76
2023/10/02 07:36:47;;;;;;;7.15;2.35;;;;;;;21.92;44.68;100549.78;4379900;32;33644;-71
2023/10/02 07:42:03;;;;;;;5.97;2.25;;;;;;;22.07;44.51;100548.13;4381258;32;34063;-71
2023/10/02 07:44:37;;;;;;;6.62;3.10;;;;;;;21.39;45.17;100558.19;4387617;32;34985;-70
2023/10/02 07:47:10;;;;;;;9.23;2.72;;;;;;;21.62;45.54;100560.31;4387209;32;33725;-71
2023/10/02 07:49:48;;;;;;;3.65;1.95;;;;;;;21.74;44.99;100558.13;4381164;32;33406;-71
2023/10/02 07:52:29;;;;;;;6.65;2.75;;;;;;;21.18;46.07;100568.63;4387240;32;34894;-71
2023/10/02 07:54:59;;;;;;;4.80;2.42;;;;;;;21.65;44.73;100567.31;4386208;32;35232;-71
2023/10/02 07:57:32;;;;;;;4.20;2.08;;;;;;;21.68;45.19;100576.00;4381818;32;34298;-71
2023/10/02 08:00:04;;;;;;;6.20;3.05;;;;;;;21.78;45.75;100565.78;4378076;32;33217;-70
2023/10/02 08:02:35;;;;;;;6.93;2.83;;;;;;;21.71;45.48;100569.37;4390433;32;34393;-71
2023/10/02 08:05:04;;;;;;;5.43;3.15;;;;;;;21.98;44.84;100577.22;4388605;32;33677;-71
2023/10/02 08:07:34;;;;;;;9.30;2.97;;;;;;;22.04;44.68;100571.09;4386959;32;32428;-71
2023/10/02 08:10:14;;;;;;;14.38;2.20;;;;;;;22.24;43.67;100570.81;4387476;32;33609;-71
2023/10/02 08:12:54;;;;;;;14.43;2.40;;;;;;;22.25;43.78;100570.66;4390481;32;35084;-71
2023/10/02 08:15:26;;;;;;;7.60;2.53;;;;;;;22.15;44.37;100578.12;4380404;32;33746;-71
2023/10/02 08:20:36;;;;;;;7.22;2.12;;;;;;;21.69;45.10;100565.94;4388765;32;33333;-70
2023/10/02 08:23:21;;;;;;;6.00;2.25;;;;;;;21.76;45.31;100566.97;4378038;32;34686;-70
2023/10/02 08:26:02;;;;;;;7.20;3.33;;;;;;;21.78;45.24;100571.25;4387050;32;34253;-70
2023/10/02 08:28:33;;;;;;;5.78;2.12;;;;;;;22.14;44.59;100565.50;4378889;32;33707;-70
2023/10/02 08:31:02;;;;;;;8.95;3.17;;;;;;;22.21;45.20;100558.34;4390567;32;33161;-70
2023/10/02 08:33:30;;;;;;;6.32;2.85;;;;;;;22.28;44.96;100561.28;4384322;32;33140;-70
2023/10/02 08:36:19;;;;;;;10.82;3.12;;;;;;;22.08;44.64;100563.44;4384933;32;34643;-72
2023/10/02 08:38:49;;;;;;;5.75;2.78;;;;;;;22.63;43.79;100561.91;4377604;32;33687;-74
2023/10/02 08:41:43;;;;;;;7.15;2.75;;;;;;;22.53;43.27;100560.22;4385772;32;34446;-65
2023/10/02 08:44:12;;;;;;;5.25;2.60;;;;;;;22.40;44.21;100564.50;4381478;32;34057;-70
2023/10/02 08:46:43;;;;;;;4.30;2.40;;;;;;;22.59;44.07;100550.50;4386437;32;34937;-70
2023/10/02 08:49:12;;;;;;;6.45;3.10;;;;;;;22.57;43.33;100555.28;4378503;32;33685;-70
2023/10/02 08:51:48;;;;;;;7.87;3.47;;;;;;;22.35;43.95;100556.00;4381958;32;34533;-73
2023/10/02 08:54:18;;;;;;;4.65;2.35;;;;;;;22.91;43.13;100552.28;4381491;32;33640;-75
2023/10/02 08:57:01;;;;;;;6.03;2.10;;;;;;;22.65;42.95;100559.88;4379217;32;34054;-72
2023/10/02 08:59:35;;;;;;;5.00;2.35;;;;;;;22.38;42.83;100559.22;4388038;32;34647;-73
2023/10/02 09:02:16;;;;;;;;;;;;;;;22.93;42.13;100563.94;4391145;32;34170;-73
2023/10/02 09:04:53;;;;;;;6.97;2.78;;;;;;;23.04;42.30;100562.69;4390644;32;34224;-72
2023/10/02 09:07:24;;;;;;;6.97;2.97;;;;;;;23.01;41.97;100555.69;4386258;32;34095;-75
2023/10/02 09:10:12;;;;;;;8.90;3.42;;;;;;;22.74;42.58;100558.84;4378958;32;33779;-74
2023/10/02 09:12:50;;;;;;;15.85;4.25;;;;;;;23.00;42.20;100554.00;4382124;32;33488;-73
2023/10/02 09:15:29;;;;;;;11.48;3.05;;;;;;;23.20;42.05;100556.31;4376868;32;33841;-72
2023/10/02 09:18:19;;;;;;;6.30;3.03;;;;;;;23.10;41.72;100551.06;4390848;32;33674;-72
2023/10/02 09:20:53;;;;;;;7.10;2.05;;;;;;;23.14;41.97;100552.41;4392628;32;34101;-74
2023/10/02 09:23:23;;;;;;;8.07;3.95;;;;;;;23.29;41.99;100549.78;4402492;32;33543;-74
2023/10/02 09:26:23;;;;;;;12.35;3.62;;;;;;;23.47;41.45;100547.66;4385268;32;34667;-73
2023/10/02 09:29:00;;;;;;;7.07;2.87;;;;;;;22.50;43.70;100549.69;4365816;32;34376;-82
2023/10/02 09:31:34;;;;;;;4.87;2.50;;;;;;;23.17;42.26;100540.28;4376798;32;33244;-77
2023/10/02 09:34:16;;;;;;;11.82;3.58;;;;;;;23.32;41.18;100535.78;4386104;32;33609;-75
2023/10/02 09:37:11;;;;;;;8.93;3.40;;;;;;;23.07;41.81;100540.50;4383646;32;33620;-74
2023/10/02 09:40:13;;;;;;;13.27;3.15;;;;;;;23.01;41.70;100547.50;4386536;32;34296;-74
2023/10/02 09:42:45;;;;;;;5.43;2.75;;;;;;;23.27;40.74;100535.44;4392309;32;33687;-73
2023/10/02 09:45:15;;;;;;;6.57;2.92;;;;;;;23.31;41.13;100539.56;4373546;32;33404;-74
2023/10/02 09:47:42;;;;;;;8.45;3.42;;;;;;;23.24;41.77;100544.00;4388700;32;34735;-74
2023/10/02 09:50:34;;;;;;;15.95;3.22;;;;;;;23.66;40.37;100540.06;4390172;32;33886;-73
2023/10/02 09:53:08;;;;;;;4.35;2.17;;;;;;;23.47;40.55;100544.09;4385571;32;33908;-73
2023/10/02 09:55:49;;;;;;;23.20;3.60;;;;;;;23.70;40.40;100541.41;4365749;32;33432;-74
2023/10/02 09:58:28;;;;;;;10.02;2.62;;;;;;;23.47;40.06;100539.47;4369068;32;34042;-73
2023/10/02 10:03:55;;;;;;;7.28;2.67;;;;;;;23.82;39.55;100531.78;4352211;32;34063;-73
2023/10/02 10:06:36;;;;;;;8.65;3.10;;;;;;;23.98;39.22;100529.91;4371421;32;33524;-74
2023/10/02 10:11:44;;;;;;;4.90;2.20;;;;;;;23.58;40.10;100527.28;4372724;32;34998;-74
2023/10/02 10:14:36;;;;;;;7.90;2.20;;;;;;;23.98;39.08;100524.44;4371998;32;34508;-75
2023/10/02 10:17:17;;;;;;;3.60;2.08;;;;;;;24.15;38.33;100526.03;4372207;32;34334;-74
2023/10/02 10:20:08;;;;;;;5.57;2.00;;;;;;;24.10;38.00;100526.56;4373229;32;34968;-75
2023/10/02 10:22:39;;;;;;;6.57;2.75;;;;;;;24.59;37.09;100517.97;4370686;32;33658;-72
2023/10/02 10:25:42;;;;;;;8.68;3.75;;;;;;;24.34;38.17;100522.78;4372699;32;34011;-72
2023/10/02 10:28:26;;;;;;;6.20;2.75;;;;;;;24.46;37.07;100520.47;4384923;32;33557;-73
2023/10/02 10:30:56;;;;;;;11.32;3.25;;;;;;;24.15;38.68;100526.88;4380824;32;33583;-75
2023/10/02 10:33:27;;;;;;;6.72;2.70;;;;;;;24.04;39.11;100521.00;4382256;32;33771;-77
2023/10/02 10:35:55;;;;;;;6.22;2.65;;;;;;;24.55;37.39;100516.59;4381036;32;35103;-75
2023/10/02 10:38:34;;;;;;;7.40;3.15;;;;;;;24.79;37.24;100512.78;4387028;32;33537;-73
2023/10/02 10:41:30;;;;;;;11.65;3.55;;;;;;;24.85;36.86;100516.66;4385597;32;33987;-75
2023/10/02 10:43:59;;;;;;;8.57;3.15;;;;;;;25.01;36.45;100507.38;4386071;32;33987;-75
2023/10/02 10:46:29;;;;;;;6.53;2.53;;;;;;;25.03;36.63;100505.28;4385809;32;34899;-74
2023/10/02 10:49:07;;;;;;;6.00;2.72;;;;;;;24.92;36.61;100500.31;4383370;32;33292;-75
2023/10/02 10:51:39;;;;;;;6.43;2.45;;;;;;;25.16;36.32;100500.00;4381270;32;33741;-74
2023/10/02 10:54:18;;;;;;;7.55;2.75;;;;;;;25.23;36.42;100494.59;4392269;32;33900;-74
2023/10/02 10:57:19;;;;;;;6.82;2.72;;;;;;;25.21;36.76;100491.22;4387220;32;34149;-73
2023/10/02 11:00:27;;;;;;;7.57;3.20;;;;;;;24.87;37.05;100484.44;4390462;32;32682;-73
2023/10/02 11:03:07;;;;;;;8.98;3.15;;;;;;;25.45;36.69;100479.06;4381879;32;33274;-74
2023/10/02 11:05:37;;;;;;;12.40;3.60;;;;;;;25.20;37.46;100481.28;4388182;32;34114;-74
2023/10/02 11:08:23;;;;;;;9.25;2.85;;;;;;;25.42;36.61;100473.97;4386923;32;33486;-74
2023/10/02 11:11:21;;;;;;;8.52;3.53;;;;;;;25.76;35.78;100482.34;4389498;32;32092;-74
2023/10/02 11:13:51;;;;;;;11.07;3.67;;;;;;;25.06;36.55;100466.56;4391088;32;34748;-73
2023/10/02 11:16:31;;;;;;;8.73;3.40;;;;;;;25.43;36.38;100470.22;4370963;32;34067;-73
2023/10/02 11:22:19;;;;;;;4.62;1.98;;;;;;;25.76;35.94;100463.16;4351513;32;32303;-74
2023/10/02 11:24:51;;;;;;;9.43;3.35;;;;;;;25.67;35.67;100464.31;4358919;32;34710;-74
2023/10/02 11:27:19;;;;;;;5.57;2.83;;;;;;;25.54;36.59;100467.78;4357139;32;32943;-74
2023/10/02 11:30:02;;;;;;;5.43;1.90;;;;;;;25.40;36.21;100460.47;4354630;32;35054;-76
2023/10/02 11:32:54;;;;;;;6.78;2.72;;;;;;;25.57;35.41;100469.28;4358850;32;34454;-75
2023/10/02 11:35:28;;;;;;;9.10;3.55;;;;;;;25.31;36.63;100459.75;4344530;33;34614;-75
2023/10/02 11:38:01;;;;;;;;;;;;;;;25.52;37.00;100463.53;4355507;32;33936;-74
2023/10/02 11:40:29;;;;;;;5.03;2.28;;;;;;;25.69;35.53;100461.41;4363400;32;33934;-78
2023/10/02 11:42:59;;;;;;;6.28;2.72;;;;;;;25.64;35.42;100464.72;4362472;32;33071;-72
2023/10/02 11:45:29;;;;;;;7.18;2.70;;;;;;;25.75;35.82;100457.87;4356952;32;32686;-73
2023/10/02 11:47:57;;;;;;;6.97;3.10;;;;;;;25.90;35.20;100446.84;4355976;32;34651;-74
2023/10/02 11:50:24;;;;;;;4.87;2.28;;;;;;;25.82;35.59;100453.34;4353796;32;34669;-75
2023/10/02 11:52:52;;;;;;;7.07;2.53;;;;;;;25.73;35.48;100443.50;4352409;32;32870;-74
2023/10/02 11:55:21;;;;;;;7.00;2.62;;;;;;;25.86;35.78;100440.06;4348718;32;34845;-72
2023/10/02 11:57:51;;;;;;;6.05;2.55;;;;;;;25.31;36.38;100442.47;4355892;32;35303;-73
2023/10/02 12:00:24;;;;;;;13.10;3.45;;;;;;;25.68;35.79;100438.62;4383080;32;34029;-71
2023/10/02 12:02:52;;;;;;;7.15;2.40;;;;;;;25.77;34.88;100422.88;4382763;32;34342;-72
2023/10/02 12:05:20;;;;;;;8.48;3.17;;;;;;;25.43;36.83;100434.59;4383360;32;32892;-70
2023/10/02 12:07:48;;;;;;;6.78;2.70;;;;;;;25.34;35.98;100431.09;4382591;32;35242;-69
2023/10/02 12:10:16;;;;;;;8.02;2.25;;;;;;;25.85;35.69;100428.25;4382906;32;33669;-74
2023/10/02 12:12:47;;;;;;;5.80;2.53;;;;;;;25.58;34.69;100426.28;4376113;32;33416;-67
2023/10/02 12:15:15;;;;;;;6.12;2.62;;;;;;;25.31;35.70;100432.34;4381662;32;33812;-68
2023/10/02 12:17:44;;;;;;;6.82;2.53;;;;;;;25.41;35.54;100423.81;4381549;32;33759;-68
2023/10/02 12:20:16;;;;;;;4.43;1.62;;;;;;;25.42;35.50;100410.94;4381456;32;34257;-68
2023/10/02 12:22:48;;;;;;;10.05;3.22;;;;;;;25.77;35.00;100415.50;4382733;32;33504;-68
2023/10/02 12:25:16;;;;;;;9.63;3.45;;;;;;;25.89;34.64;100420.47;4381327;32;33113;-68
2023/10/02 12:27:44;;;;;;;6.22;2.58;;;;;;;25.87;34.02;100415.19;4386373;32;34028;-69
2023/10/02 12:30:12;;;;;;;4.75;2.50;;;;;;;26.19;33.81;100411.00;4387217;32;34015;-70
2023/10/02 12:32:40;;;;;;;4.78;2.05;;;;;;;26.27;33.66;100411.91;4381873;32;32971;-69
2023/10/02 12:35:08;;;;;;;6.97;2.70;;;;;;;26.25;35.00;100406.59;4383889;32;33545;-70
2023/10/02 12:37:37;;;;;;;3.92;1.73;;;;;;;25.85;35.33;100410.97;4386898;32;33812;-70
2023/10/02 12:40:12;;;;;;;8.68;2.72;;;;;;;26.21;34.02;100397.09;4388931;32;33844;-70
2023/10/02 12:42:40;;;;;;;7.47;2.85;;;;;;;25.92;35.26;100389.94;4385990;32;33064;-70
2023/10/02 12:45:08;;;;;;;5.95;2.22;;;;;;;25.82;35.72;100394.91;4386749;32;34970;-70
2023/10/02 12:47:38;;;;;;;5.97;2.47;;;;;;;26.10;35.21;100398.50;4377101;32;34002;-70
2023/10/02 12:50:13;;;;;;;3.80;1.60;;;;;;;26.22;35.03;100393.28;4381348;32;35114;-70
2023/10/02 12:52:41;;;;;;;5.28;1.90;;;;;;;26.38;34.44;100390.22;4386559;32;33504;-69
2023/10/02 12:55:09;;;;;;;3.65;1.50;;;;;;;25.83;35.54;100382.87;4391355;32;35042;-69
2023/10/02 12:57:37;;;;;;;5.25;2.37;;;;;;;25.60;35.93;100385.84;4386536;32;34883;-70
2023/10/02 13:00:17;;;;;;;4.28;2.00;;;;;;;25.77;35.31;100389.97;4381674;32;33761;-70
2023/10/02 13:02:47;;;;;;;5.68;2.12;;;;;;;26.14;35.13;100377.00;4384575;32;33174;-70
2023/10/02 13:05:15;;;;;;;5.47;1.73;;;;;;;26.47;33.75;100372.53;4388826;32;35148;-70
2023/10/02 13:07:45;;;;;;;6.72;2.00;;;;;;;25.87;34.83;100375.94;4392550;32;35357;-71
2023/10/02 13:10:14;;;;;;;5.32;2.53;;;;;;;26.20;34.16;100373.47;4390353;32;32949;-70
2023/10/02 13:12:43;;;;;;;6.03;2.00;;;;;;;26.45;34.22;100369.19;4378212;32;33679;-68